Time;durP1;ratioP1;P1;durP2;ratioP2;P2;SDS_P1;SDS_P2;PMS_P1;PMS_P2;Temp;Humidity;BMP_temperature;BMP_pressure;BME280_temperature;BME280_humidity;BME280_pressure;Samples;Min_cycle;Max_cycle;Signal;HPM_P1;HPM_P2
2021/07/20 00:02:14;;;;;;;12.87;6.67;;;;;;;;;;5072614;28;20400;-70
2021/07/20 00:04:40;;;;;;;8.60;6.07;;;;;;;;;;5057704;28;20488;-71
2021/07/20 00:07:06;;;;;;;10.20;6.30;;;;;;;;;;5066037;28;20432;-70
2021/07/20 00:09:32;;;;;;;13.07;7.33;;;;;;;;;;5057593;28;20434;-70
2021/07/20 00:11:58;;;;;;;8.90;6.80;;;;;;;;;;5052180;28;20451;-70
2021/07/20 00:14:24;;;;;;;13.33;7.77;;;;;;;;;;5046782;28;20467;-71
2021/07/20 00:16:50;;;;;;;10.83;7.00;;;;;;;;;;5072198;28;20889;-70
2021/07/20 00:19:16;;;;;;;7.00;5.67;;;;;;;;;;5071218;28;20421;-69
2021/07/20 00:21:42;;;;;;;9.90;6.60;;;;;;;;;;5072199;28;20408;-69
2021/07/20 00:24:08;;;;;;;9.80;7.50;;;;;;;;;;5064663;28;20435;-69
2021/07/20 00:26:34;;;;;;;11.40;7.90;;;;;;;;;;5055636;28;20429;-69
2021/07/20 00:29:00;;;;;;;9.00;7.03;;;;;;;;;;5064538;28;20420;-69
2021/07/20 00:31:26;;;;;;;8.27;6.40;;;;;;;;;;5075597;28;20405;-69
2021/07/20 00:33:53;;;;;;;15.20;9.73;;;;;;;;;;5074529;28;20431;-69
2021/07/20 00:36:19;;;;;;;10.83;6.80;;;;;;;;;;5074393;28;20444;-70
2021/07/20 00:38:45;;;;;;;9.83;7.03;;;;;;;;;;5074666;28;20453;-70
2021/07/20 00:41:11;;;;;;;12.53;7.80;;;;;;;;;;5075439;28;20409;-70
2021/07/20 00:43:37;;;;;;;12.77;7.73;;;;;;;;;;5072170;28;20464;-70
2021/07/20 00:46:03;;;;;;;13.30;7.70;;;;;;;;;;5055585;28;20418;-70
2021/07/20 00:48:29;;;;;;;11.33;8.27;;;;;;;;;;5058909;28;20425;-70
2021/07/20 00:50:55;;;;;;;10.70;7.50;;;;;;;;;;5075567;28;20479;-70
2021/07/20 00:53:22;;;;;;;16.77;8.50;;;;;;;;;;5073936;28;20948;-70
2021/07/20 00:55:48;;;;;;;12.20;7.10;;;;;;;;;;5057092;28;20433;-70
2021/07/20 00:58:17;;;;;;;14.33;7.77;;;;;;;;;;5074170;28;20472;-70
2021/07/20 01:00:47;;;;;;;11.40;7.40;;;;;;;;;;5075108;28;20511;-70
2021/07/20 01:03:13;;;;;;;11.80;7.20;;;;;;;;;;5073933;28;20400;-70
2021/07/20 01:05:39;;;;;;;11.47;8.30;;;;;;;;;;5054793;28;20445;-70
2021/07/20 01:08:06;;;;;;;16.60;8.40;;;;;;;;;;5054866;28;20853;-72
2021/07/20 01:10:32;;;;;;;11.97;8.10;;;;;;;;;;5074503;28;20457;-70
2021/07/20 01:12:58;;;;;;;12.97;9.00;;;;;;;;;;5075050;28;20488;-70
2021/07/20 01:15:24;;;;;;;10.83;8.10;;;;;;;;;;5055966;28;20442;-70
2021/07/20 01:17:51;;;;;;;12.87;8.80;;;;;;;;;;5053566;28;20815;-69
2021/07/20 01:20:18;;;;;;;12.40;8.77;;;;;;;;;;5068940;28;20431;-70
2021/07/20 01:23:06;;;;;;;10.87;7.80;;;;;;;;;;5072480;28;20433;-70
2021/07/20 01:25:32;;;;;;;12.90;8.23;;;;;;;;;;5052482;28;20453;-70
2021/07/20 01:28:02;;;;;;;12.00;8.10;;;;;;;;;;5054539;28;20433;-70
2021/07/20 01:30:29;;;;;;;13.77;8.37;;;;;;;;;;5067748;28;20511;-70
2021/07/20 01:32:55;;;;;;;14.80;8.60;;;;;;;;;;5074529;28;20410;-69
2021/07/20 01:35:22;;;;;;;13.53;9.10;;;;;;;;;;5072725;28;20864;-69
2021/07/20 01:37:48;;;;;;;11.97;8.07;;;;;;;;;;5074564;28;20819;-69
2021/07/20 01:40:15;;;;;;;14.03;8.90;;;;;;;;;;5061177;28;20430;-69
2021/07/20 01:42:44;;;;;;;11.07;8.30;;;;;;;;;;5054251;28;20394;-69
2021/07/20 01:45:11;;;;;;;12.70;8.67;;;;;;;;;;5064578;28;20445;-69
2021/07/20 01:47:37;;;;;;;19.20;9.40;;;;;;;;;;5074104;28;20405;-70
2021/07/20 01:50:05;;;;;;;11.43;7.90;;;;;;;;;;5064097;28;20792;-70
2021/07/20 01:52:32;;;;;;;12.70;7.83;;;;;;;;;;5054103;28;20402;-70
2021/07/20 01:54:58;;;;;;;11.90;7.57;;;;;;;;;;5062016;28;20464;-70
2021/07/20 01:57:24;;;;;;;13.67;8.10;;;;;;;;;;5074005;28;20526;-70
2021/07/20 01:59:51;;;;;;;13.17;9.20;;;;;;;;;;5067311;28;20433;-69
2021/07/20 02:02:50;;;;;;;13.00;8.83;;;;;;;;;;5064463;28;20424;-69
2021/07/20 02:10:49;;;;;;;14.03;8.70;;;;;;;;;;5053599;28;20475;-70
2021/07/20 02:13:16;;;;;;;16.23;9.60;;;;;;;;;;5070851;28;20507;-70
2021/07/20 02:15:42;;;;;;;13.30;8.20;;;;;;;;;;5059101;28;20449;-69
2021/07/20 02:18:10;;;;;;;10.43;7.40;;;;;;;;;;5053814;28;20813;-70
2021/07/20 02:20:39;;;;;;;11.13;8.20;;;;;;;;;;5053443;28;20439;-70
2021/07/20 02:23:05;;;;;;;12.93;8.10;;;;;;;;;;5053412;28;20398;-70
2021/07/20 02:25:32;;;;;;;13.07;8.97;;;;;;;;;;5064795;28;20786;-70
2021/07/20 02:27:58;;;;;;;17.83;8.97;;;;;;;;;;5073385;28;20408;-69
2021/07/20 02:30:25;;;;;;;15.47;9.00;;;;;;;;;;5072532;28;20429;-70
2021/07/20 02:32:52;;;;;;;14.13;9.53;;;;;;;;;;5073351;28;20812;-70
2021/07/20 02:35:21;;;;;;;15.00;8.80;;;;;;;;;;5062934;28;20469;-70
2021/07/20 02:37:48;;;;;;;14.07;9.20;;;;;;;;;;5053154;28;20550;-70
2021/07/20 02:40:14;;;;;;;13.53;8.60;;;;;;;;;;5070190;28;21001;-70
2021/07/20 02:42:40;;;;;;;14.20;8.40;;;;;;;;;;5053226;28;20394;-70
2021/07/20 02:45:10;;;;;;;15.67;9.43;;;;;;;;;;5061763;28;20952;-70
2021/07/20 02:47:37;;;;;;;9.13;8.13;;;;;;;;;;5079586;28;20418;-70
2021/07/20 02:50:10;;;;;;;12.93;8.03;;;;;;;;;;5069599;28;20595;-70
2021/07/20 02:52:37;;;;;;;13.17;9.13;;;;;;;;;;5073256;28;20483;-70
2021/07/20 02:55:03;;;;;;;13.27;8.20;;;;;;;;;;5064454;28;20471;-69
2021/07/20 02:57:30;;;;;;;16.73;10.37;;;;;;;;;;5073864;28;20550;-69
2021/07/20 02:59:56;;;;;;;14.87;8.67;;;;;;;;;;5081396;28;20424;-69
2021/07/20 03:02:22;;;;;;;17.83;11.33;;;;;;;;;;5052858;28;20405;-70
2021/07/20 03:04:48;;;;;;;16.70;10.63;;;;;;;;;;5056249;28;20460;-70
2021/07/20 03:07:16;;;;;;;14.93;9.63;;;;;;;;;;5073141;28;20829;-70
2021/07/20 03:09:45;;;;;;;14.70;9.03;;;;;;;;;;5077869;28;20428;-69
2021/07/20 03:12:13;;;;;;;14.90;9.57;;;;;;;;;;5072981;28;20409;-70
2021/07/20 03:14:40;;;;;;;15.53;9.90;;;;;;;;;;5071793;28;20457;-69
2021/07/20 03:17:07;;;;;;;11.70;8.97;;;;;;;;;;5072466;28;20574;-70
2021/07/20 03:19:34;;;;;;;13.53;9.10;;;;;;;;;;5069671;28;20421;-69
2021/07/20 03:22:19;;;;;;;13.80;8.70;;;;;;;;;;5052812;28;20398;-70
2021/07/20 03:24:46;;;;;;;11.90;8.70;;;;;;;;;;5054629;28;20441;-69
2021/07/20 03:27:12;;;;;;;12.57;8.07;;;;;;;;;;5066982;28;20424;-70
2021/07/20 03:29:42;;;;;;;12.23;9.17;;;;;;;;;;5055070;28;20908;-69
2021/07/20 03:32:15;;;;;;;13.57;8.90;;;;;;;;;;5070312;28;20434;-69
2021/07/20 03:34:42;;;;;;;10.80;8.20;;;;;;;;;;5071127;28;20918;-69
2021/07/20 03:37:08;;;;;;;12.10;8.57;;;;;;;;;;5072370;28;20456;-70
2021/07/20 03:39:36;;;;;;;11.17;8.10;;;;;;;;;;5071224;28;20405;-69
2021/07/20 03:42:02;;;;;;;15.53;9.77;;;;;;;;;;5072709;28;20811;-70
2021/07/20 03:44:29;;;;;;;12.87;9.50;;;;;;;;;;5072654;28;20833;-69
2021/07/20 03:46:56;;;;;;;12.70;8.70;;;;;;;;;;5054329;28;20421;-70
2021/07/20 03:49:23;;;;;;;13.37;9.20;;;;;;;;;;5073446;28;20397;-70
2021/07/20 03:51:49;;;;;;;16.47;9.00;;;;;;;;;;5058347;28;20417;-70
2021/07/20 03:54:15;;;;;;;11.73;8.17;;;;;;;;;;5072275;28;20452;-70
2021/07/20 03:56:42;;;;;;;12.37;10.03;;;;;;;;;;5071624;28;20417;-70
2021/07/20 03:59:09;;;;;;;12.13;8.43;;;;;;;;;;5076435;28;20452;-70
2021/07/20 04:01:37;;;;;;;14.63;8.80;;;;;;;;;;5075209;28;20471;-70
2021/07/20 04:04:04;;;;;;;13.17;8.73;;;;;;;;;;5082691;28;20511;-70
2021/07/20 04:06:30;;;;;;;11.77;8.17;;;;;;;;;;5063135;28;20427;-69
2021/07/20 04:08:57;;;;;;;16.10;9.40;;;;;;;;;;5094201;28;20428;-70
2021/07/20 04:11:23;;;;;;;14.17;10.20;;;;;;;;;;5080506;28;20433;-70
2021/07/20 04:13:52;;;;;;;13.40;8.70;;;;;;;;;;5075928;28;20451;-70
2021/07/20 04:16:18;;;;;;;12.90;8.97;;;;;;;;;;5062056;28;20495;-70
2021/07/20 04:18:45;;;;;;;12.40;8.87;;;;;;;;;;5056159;28;20891;-70
2021/07/20 04:21:11;;;;;;;14.97;9.13;;;;;;;;;;5046231;28;20562;-70
2021/07/20 04:23:37;;;;;;;11.43;8.37;;;;;;;;;;5055730;28;20812;-70
2021/07/20 04:26:04;;;;;;;14.47;9.50;;;;;;;;;;5065486;28;20451;-70
2021/07/20 04:28:30;;;;;;;13.50;9.33;;;;;;;;;;5075929;28;20739;-71
2021/07/20 04:30:59;;;;;;;12.97;8.70;;;;;;;;;;5074607;28;20425;-71
2021/07/20 04:33:28;;;;;;;16.10;9.73;;;;;;;;;;5076090;28;20821;-71
2021/07/20 04:35:56;;;;;;;16.47;9.37;;;;;;;;;;5074360;28;20449;-71
2021/07/20 04:38:22;;;;;;;18.63;9.33;;;;;;;;;;5075893;28;20452;-71
2021/07/20 04:40:49;;;;;;;12.87;9.83;;;;;;;;;;5069840;28;20429;-71
2021/07/20 04:43:15;;;;;;;13.73;9.60;;;;;;;;;;5075510;28;20408;-71
2021/07/20 04:45:41;;;;;;;15.63;9.90;;;;;;;;;;5075045;28;20449;-71
2021/07/20 04:48:08;;;;;;;13.17;9.30;;;;;;;;;;5095643;28;20503;-71
2021/07/20 04:50:35;;;;;;;14.83;8.60;;;;;;;;;;5082685;28;20433;-71
2021/07/20 04:53:03;;;;;;;13.23;10.43;;;;;;;;;;5055372;28;20412;-71
2021/07/20 04:55:34;;;;;;;18.80;9.60;;;;;;;;;;5058601;28;20448;-71
2021/07/20 04:58:01;;;;;;;15.63;10.10;;;;;;;;;;5066000;28;20472;-71
2021/07/20 05:00:27;;;;;;;16.20;9.20;;;;;;;;;;5077423;28;21002;-71
2021/07/20 05:02:53;;;;;;;15.13;10.13;;;;;;;;;;5075248;28;20398;-71
2021/07/20 05:05:22;;;;;;;14.20;9.40;;;;;;;;;;5071181;28;20461;-71
2021/07/20 05:07:48;;;;;;;13.33;7.97;;;;;;;;;;5054713;28;20402;-71
2021/07/20 05:10:15;;;;;;;14.87;9.17;;;;;;;;;;5069440;28;20439;-71
2021/07/20 05:12:41;;;;;;;12.83;7.90;;;;;;;;;;5095034;28;20404;-71
2021/07/20 05:15:07;;;;;;;16.50;9.13;;;;;;;;;;5084394;28;20456;-71
2021/07/20 05:17:34;;;;;;;12.10;9.73;;;;;;;;;;5074683;28;20452;-71
2021/07/20 05:20:02;;;;;;;13.00;9.40;;;;;;;;;;5073827;28;20431;-71
2021/07/20 05:22:28;;;;;;;11.40;7.93;;;;;;;;;;5075080;28;20811;-71
2021/07/20 05:24:55;;;;;;;13.80;8.40;;;;;;;;;;5067269;28;20448;-71
2021/07/20 05:27:22;;;;;;;13.50;8.97;;;;;;;;;;5054534;28;20406;-71
2021/07/20 05:29:48;;;;;;;14.63;9.37;;;;;;;;;;5054649;28;20452;-71
2021/07/20 05:32:18;;;;;;;12.53;9.60;;;;;;;;;;5054592;28;20401;-71
2021/07/20 05:34:51;;;;;;;14.43;8.90;;;;;;;;;;5059523;28;20958;-71
2021/07/20 05:37:20;;;;;;;17.10;9.37;;;;;;;;;;5074402;28;20537;-71
2021/07/20 05:39:47;;;;;;;15.50;8.63;;;;;;;;;;5073359;28;20424;-71
2021/07/20 05:42:17;;;;;;;13.27;9.30;;;;;;;;;;5061339;28;20527;-71
2021/07/20 05:44:43;;;;;;;14.00;8.73;;;;;;;;;;5058697;28;20490;-71
2021/07/20 05:47:09;;;;;;;11.30;8.53;;;;;;;;;;5074263;28;20408;-71
2021/07/20 05:49:35;;;;;;;13.30;10.27;;;;;;;;;;5073257;28;20452;-71
2021/07/20 05:52:02;;;;;;;13.33;9.60;;;;;;;;;;5056150;28;20436;-71
2021/07/20 05:54:28;;;;;;;12.40;8.37;;;;;;;;;;5072972;28;20837;-69
2021/07/20 05:56:55;;;;;;;20.40;9.43;;;;;;;;;;5069067;28;20769;-71
2021/07/20 05:59:22;;;;;;;16.67;8.87;;;;;;;;;;5054540;28;20519;-70
2021/07/20 06:01:48;;;;;;;15.30;9.10;;;;;;;;;;5073735;28;20408;-70
2021/07/20 06:04:15;;;;;;;10.70;7.97;;;;;;;;;;5073145;28;20425;-72
2021/07/20 06:06:41;;;;;;;13.00;9.10;;;;;;;;;;5055737;28;20418;-70
2021/07/20 06:09:08;;;;;;;16.23;8.03;;;;;;;;;;5076640;28;20423;-70
2021/07/20 06:11:34;;;;;;;9.90;7.77;;;;;;;;;;5073479;28;20527;-70
2021/07/20 06:14:02;;;;;;;12.20;9.90;;;;;;;;;;5070493;28;20421;-70
2021/07/20 06:16:28;;;;;;;13.13;8.83;;;;;;;;;;5070715;28;20428;-70
2021/07/20 06:18:54;;;;;;;9.80;6.77;;;;;;;;;;5073489;28;20463;-70
2021/07/20 06:21:21;;;;;;;14.60;9.43;;;;;;;;;;5071293;28;20757;-70
2021/07/20 06:23:48;;;;;;;12.13;8.47;;;;;;;;;;5073293;28;20949;-70
2021/07/20 06:26:21;;;;;;;11.80;7.50;;;;;;;;;;5072176;28;20444;-71
2021/07/20 06:28:49;;;;;;;12.03;8.77;;;;;;;;;;5073377;28;20488;-70
2021/07/20 06:31:18;;;;;;;12.10;8.00;;;;;;;;;;5062465;28;20431;-70
2021/07/20 06:33:45;;;;;;;13.03;8.50;;;;;;;;;;5053205;28;20418;-70
2021/07/20 06:36:13;;;;;;;12.27;7.83;;;;;;;;;;5062941;28;20460;-70
2021/07/20 06:38:39;;;;;;;12.00;8.20;;;;;;;;;;5073195;28;20461;-70
2021/07/20 06:41:05;;;;;;;13.47;7.40;;;;;;;;;;5071322;28;20850;-70
2021/07/20 06:43:34;;;;;;;11.37;7.40;;;;;;;;;;5073088;28;20401;-70
2021/07/20 06:46:10;;;;;;;10.33;7.60;;;;;;;;;;5073792;28;20440;-71
2021/07/20 06:48:40;;;;;;;12.43;8.23;;;;;;;;;;5046931;28;20520;-70
2021/07/20 06:51:06;;;;;;;12.97;7.80;;;;;;;;;;5073357;28;20811;-70
2021/07/20 06:53:34;;;;;;;11.80;8.53;;;;;;;;;;5062539;28;20842;-70
2021/07/20 06:56:02;;;;;;;11.37;7.50;;;;;;;;;;5056992;28;20544;-70
2021/07/20 06:58:28;;;;;;;10.10;8.50;;;;;;;;;;5063585;28;20455;-71
2021/07/20 07:00:55;;;;;;;14.80;7.30;;;;;;;;;;5065343;28;20460;-71
2021/07/20 07:03:23;;;;;;;20.43;9.07;;;;;;;;;;5052726;28;20421;-71
2021/07/20 07:05:49;;;;;;;13.47;8.30;;;;;;;;;;5057353;28;20460;-71
2021/07/20 07:08:16;;;;;;;11.50;7.93;;;;;;;;;;5073089;28;20405;-71
2021/07/20 07:10:43;;;;;;;18.57;11.77;;;;;;;;;;5062512;28;20428;-71
2021/07/20 07:13:10;;;;;;;11.60;7.67;;;;;;;;;;5054143;28;20421;-72
2021/07/20 07:15:37;;;;;;;20.70;8.90;;;;;;;;;;5055681;28;20992;-72
2021/07/20 07:18:03;;;;;;;10.63;7.07;;;;;;;;;;5072577;28;20444;-72
2021/07/20 07:20:31;;;;;;;10.77;7.33;;;;;;;;;;5072218;28;20586;-72
2021/07/20 07:22:58;;;;;;;13.53;7.63;;;;;;;;;;5070040;28;20417;-72
2021/07/20 07:25:24;;;;;;;11.33;8.13;;;;;;;;;;5055509;28;21108;-71
2021/07/20 07:27:53;;;;;;;14.37;7.93;;;;;;;;;;5054123;28;20434;-72
2021/07/20 07:30:19;;;;;;;12.47;7.10;;;;;;;;;;5053125;28;20409;-72
2021/07/20 07:32:45;;;;;;;11.63;7.00;;;;;;;;;;5074389;28;20436;-72
2021/07/20 07:35:12;;;;;;;11.07;8.30;;;;;;;;;;5076274;28;20420;-72
2021/07/20 07:37:39;;;;;;;9.50;6.87;;;;;;;;;;5076032;28;20835;-71
2021/07/20 07:40:06;;;;;;;9.40;7.20;;;;;;;;;;5076654;28;20462;-71
2021/07/20 07:42:33;;;;;;;12.20;8.40;;;;;;;;;;5075141;28;20515;-71
2021/07/20 07:45:00;;;;;;;10.00;7.20;;;;;;;;;;5076345;28;20416;-71
2021/07/20 07:47:27;;;;;;;10.57;7.50;;;;;;;;;;5057728;28;20508;-71
2021/07/20 07:49:53;;;;;;;12.97;7.80;;;;;;;;;;5058925;28;20397;-72
2021/07/20 07:52:20;;;;;;;11.73;7.30;;;;;;;;;;5076949;28;20939;-70
2021/07/20 07:54:46;;;;;;;12.37;7.57;;;;;;;;;;5076304;28;20425;-70
2021/07/20 07:57:13;;;;;;;13.10;8.20;;;;;;;;;;5073824;28;20457;-70
2021/07/20 07:59:40;;;;;;;11.47;7.00;;;;;;;;;;5074045;28;20432;-71
2021/07/20 08:02:08;;;;;;;8.10;7.13;;;;;;;;;;5084668;28;20493;-70
2021/07/20 08:04:34;;;;;;;14.27;7.53;;;;;;;;;;5075996;28;20451;-70
2021/07/20 08:07:01;;;;;;;11.00;6.60;;;;;;;;;;5067962;28;20421;-71
2021/07/20 08:09:30;;;;;;;9.40;6.73;;;;;;;;;;5056129;28;20531;-71
2021/07/20 08:11:57;;;;;;;8.00;6.20;;;;;;;;;;5063359;28;20822;-71
2021/07/20 08:14:23;;;;;;;9.43;6.97;;;;;;;;;;5075893;28;20474;-71
2021/07/20 08:16:50;;;;;;;8.13;6.00;;;;;;;;;;5075248;28;20554;-71
2021/07/20 08:19:19;;;;;;;9.03;6.60;;;;;;;;;;5076068;28;20445;-70
2021/07/20 08:21:46;;;;;;;10.30;6.87;;;;;;;;;;5068447;28;20478;-71
2021/07/20 08:24:13;;;;;;;10.67;6.63;;;;;;;;;;5075642;28;20401;-71
2021/07/20 08:27:14;;;;;;;10.53;7.50;;;;;;;;;;5075005;28;20527;-71
2021/07/20 08:29:43;;;;;;;10.93;6.30;;;;;;;;;;5013322;28;20505;-71
2021/07/20 08:32:10;;;;;;;10.70;6.17;;;;;;;;;;5063936;28;20433;-71
2021/07/20 08:34:49;;;;;;;8.87;6.70;;;;;;;;;;5075526;28;20452;-71
2021/07/20 08:37:16;;;;;;;13.90;7.47;;;;;;;;;;5074715;28;20434;-70
2021/07/20 08:39:43;;;;;;;10.50;6.70;;;;;;;;;;5075870;28;20768;-70
2021/07/20 08:42:09;;;;;;;10.30;6.83;;;;;;;;;;5074653;28;20421;-71
2021/07/20 08:44:49;;;;;;;7.50;5.50;;;;;;;;;;5074804;28;20512;-71
2021/07/20 08:47:20;;;;;;;11.60;7.30;;;;;;;;;;5066065;28;20430;-71
2021/07/20 08:49:55;;;;;;;10.77;7.03;;;;;;;;;;5055333;28;20386;-71
2021/07/20 08:52:28;;;;;;;11.70;7.37;;;;;;;;;;5055070;28;20547;-71
2021/07/20 08:55:02;;;;;;;12.40;7.23;;;;;;;;;;5070472;28;20521;-71
2021/07/20 08:57:37;;;;;;;9.80;6.00;;;;;;;;;;5083370;28;20884;-71
2021/07/20 09:00:08;;;;;;;10.60;7.47;;;;;;;;;;5074236;28;20421;-71
2021/07/20 09:02:53;;;;;;;9.17;6.93;;;;;;;;;;5073559;28;20428;-72
2021/07/20 09:05:22;;;;;;;8.47;6.50;;;;;;;;;;5074418;28;20447;-71
2021/07/20 09:08:03;;;;;;;11.40;7.20;;;;;;;;;;5074405;28;20432;-71
2021/07/20 09:10:32;;;;;;;14.80;8.50;;;;;;;;;;5074212;28;20449;-71
2021/07/20 09:12:59;;;;;;;9.27;7.27;;;;;;;;;;5073695;28;20795;-72
2021/07/20 09:15:27;;;;;;;11.17;7.60;;;;;;;;;;5074806;28;20421;-73
2021/07/20 09:18:14;;;;;;;10.40;7.70;;;;;;;;;;5073239;28;20491;-75
2021/07/20 09:20:42;;;;;;;10.80;8.00;;;;;;;;;;5074547;28;20444;-74
2021/07/20 09:23:16;;;;;;;10.00;6.63;;;;;;;;;;5055941;28;20455;-71
2021/07/20 09:25:53;;;;;;;11.87;8.03;;;;;;;;;;5071926;28;20437;-74
2021/07/20 09:28:37;;;;;;;11.60;7.30;;;;;;;;;;5054439;28;20839;-74
2021/07/20 09:31:07;;;;;;;9.30;7.13;;;;;;;;;;5072962;28;20909;-74
2021/07/20 09:33:36;;;;;;;10.10;7.63;;;;;;;;;;5072310;28;20431;-74
2021/07/20 09:36:12;;;;;;;13.23;7.87;;;;;;;;;;5072160;28;20441;-74
2021/07/20 09:38:48;;;;;;;13.50;8.37;;;;;;;;;;5073009;28;20479;-74
2021/07/20 09:41:24;;;;;;;13.27;8.37;;;;;;;;;;5073269;28;20421;-70
2021/07/20 09:43:59;;;;;;;12.33;8.53;;;;;;;;;;5054393;28;20410;-74
2021/07/20 09:46:35;;;;;;;14.50;9.10;;;;;;;;;;5061247;28;20400;-74
2021/07/20 09:49:07;;;;;;;16.17;9.60;;;;;;;;;;5055424;28;21017;-73
2021/07/20 09:51:42;;;;;;;14.30;8.00;;;;;;;;;;5054332;28;20391;-73
2021/07/20 09:54:20;;;;;;;11.20;8.67;;;;;;;;;;5061429;28;20419;-70
2021/07/20 09:57:05;;;;;;;12.23;8.30;;;;;;;;;;5063055;28;20820;-73
2021/07/20 09:59:43;;;;;;;14.30;7.77;;;;;;;;;;5072840;28;20539;-72
2021/07/20 10:02:12;;;;;;;14.17;10.07;;;;;;;;;;5057330;28;20424;-72
2021/07/20 10:04:57;;;;;;;12.80;8.40;;;;;;;;;;5072640;28;20476;-72
2021/07/20 10:07:25;;;;;;;14.33;9.17;;;;;;;;;;5063564;28;20420;-72
2021/07/20 10:09:58;;;;;;;16.33;8.70;;;;;;;;;;5069670;28;20428;-73
2021/07/20 10:12:27;;;;;;;12.70;8.73;;;;;;;;;;5071162;28;21041;-70
2021/07/20 10:15:07;;;;;;;12.27;8.67;;;;;;;;;;5072846;28;20444;-74
2021/07/20 10:17:45;;;;;;;12.17;9.10;;;;;;;;;;5071057;28;20451;-71
2021/07/20 10:20:17;;;;;;;14.70;10.60;;;;;;;;;;5073118;28;20412;-75
2021/07/20 10:22:43;;;;;;;13.07;9.40;;;;;;;;;;5072935;28;20416;-73
2021/07/20 10:25:29;;;;;;;13.17;9.83;;;;;;;;;;5069723;28;20440;-74
2021/07/20 10:27:58;;;;;;;17.90;10.20;;;;;;;;;;5063181;28;20429;-72
2021/07/20 10:30:25;;;;;;;10.73;8.00;;;;;;;;;;5073056;28;20908;-74
2021/07/20 10:32:51;;;;;;;16.73;11.00;;;;;;;;;;5072905;28;20420;-73
2021/07/20 10:35:38;;;;;;;14.90;10.17;;;;;;;;;;5069354;28;20466;-72
2021/07/20 10:38:07;;;;;;;13.33;9.40;;;;;;;;;;5053387;28;20573;-71
2021/07/20 10:40:33;;;;;;;15.97;9.33;;;;;;;;;;5061397;28;20425;-74
2021/07/20 10:43:18;;;;;;;12.90;9.63;;;;;;;;;;5073937;28;20404;-78
2021/07/20 10:45:46;;;;;;;13.80;10.67;;;;;;;;;;5071204;28;20527;-73
2021/07/20 10:48:17;;;;;;;13.83;10.57;;;;;;;;;;5073151;28;20420;-73
2021/07/20 10:50:57;;;;;;;11.80;9.33;;;;;;;;;;5070714;28;20423;-74
2021/07/20 10:53:31;;;;;;;11.43;9.33;;;;;;;;;;5068178;28;20421;-73
2021/07/20 10:55:57;;;;;;;13.07;9.50;;;;;;;;;;5073427;28;20462;-76
2021/07/20 10:58:28;;;;;;;13.90;9.00;;;;;;;;;;5072699;28;20449;-75
2021/07/20 11:01:02;;;;;;;11.47;8.80;;;;;;;;;;5075186;28;20423;-73
2021/07/20 11:03:32;;;;;;;12.00;8.67;;;;;;;;;;5081623;28;20449;-75
2021/07/20 11:05:59;;;;;;;13.90;9.60;;;;;;;;;;5071623;28;20805;-71
2021/07/20 11:08:26;;;;;;;12.70;9.60;;;;;;;;;;5071520;28;20519;-70
2021/07/20 11:10:53;;;;;;;12.47;10.10;;;;;;;;;;5070912;28;20436;-70
2021/07/20 11:13:22;;;;;;;12.73;9.30;;;;;;;;;;5081355;28;20429;-72
2021/07/20 11:15:53;;;;;;;12.10;9.10;;;;;;;;;;5081192;28;20443;-72
2021/07/20 11:18:21;;;;;;;12.53;9.23;;;;;;;;;;5093232;28;20443;-74
2021/07/20 11:20:49;;;;;;;12.13;9.50;;;;;;;;;;5080742;28;20423;-74
2021/07/20 11:23:18;;;;;;;13.73;9.77;;;;;;;;;;5073590;28;20414;-75
2021/07/20 11:25:47;;;;;;;12.17;9.73;;;;;;;;;;5071357;28;20502;-73
2021/07/20 11:28:13;;;;;;;16.03;10.70;;;;;;;;;;5051313;28;20797;-71
2021/07/20 11:30:39;;;;;;;13.67;9.73;;;;;;;;;;5072579;28;20425;-72
2021/07/20 11:33:09;;;;;;;12.70;9.50;;;;;;;;;;5073961;28;20404;-73
2021/07/20 11:35:40;;;;;;;15.20;10.80;;;;;;;;;;5072011;28;20444;-72
2021/07/20 11:38:10;;;;;;;14.03;9.77;;;;;;;;;;5073360;28;20778;-71
2021/07/20 11:41:01;;;;;;;13.57;10.40;;;;;;;;;;5069945;28;20421;-71
2021/07/20 11:43:45;;;;;;;17.30;10.73;;;;;;;;;;5063147;28;20433;-78
2021/07/20 11:46:13;;;;;;;13.10;9.70;;;;;;;;;;5047138;28;20440;-69
2021/07/20 11:49:05;;;;;;;12.53;10.13;;;;;;;;;;5071751;28;20408;-76
2021/07/20 11:51:34;;;;;;;15.63;11.27;;;;;;;;;;5068315;28;20487;-76
2021/07/20 11:54:05;;;;;;;14.90;10.43;;;;;;;;;;5072583;28;20567;-76
2021/07/20 11:56:33;;;;;;;15.03;9.80;;;;;;;;;;5061835;28;20507;-76
2021/07/20 11:59:17;;;;;;;15.23;8.83;;;;;;;;;;5073193;28;20848;-76
2021/07/20 12:02:02;;;;;;;19.30;10.97;;;;;;;;;;5072776;28;20449;-76
2021/07/20 12:04:34;;;;;;;13.70;9.33;;;;;;;;;;5073452;28;20436;-77
2021/07/20 12:07:12;;;;;;;11.97;9.43;;;;;;;;;;5061064;28;20898;-76
2021/07/20 12:09:38;;;;;;;15.23;10.87;;;;;;;;;;5053696;28;20401;-76
2021/07/20 12:12:04;;;;;;;14.60;10.43;;;;;;;;;;5064854;28;20477;-76
2021/07/20 12:14:30;;;;;;;14.30;10.60;;;;;;;;;;5073945;28;20734;-77
2021/07/20 12:16:57;;;;;;;13.67;11.50;;;;;;;;;;5070750;28;20429;-76
2021/07/20 12:19:27;;;;;;;14.40;10.10;;;;;;;;;;5055734;28;20457;-76
2021/07/20 12:21:53;;;;;;;14.70;10.70;;;;;;;;;;5066303;28;20424;-75
2021/07/20 12:24:22;;;;;;;15.93;9.93;;;;;;;;;;5076255;28;20423;-76
2021/07/20 12:26:48;;;;;;;13.00;9.70;;;;;;;;;;5075415;28;20435;-76
2021/07/20 12:29:15;;;;;;;15.10;10.70;;;;;;;;;;5076036;28;20401;-76
2021/07/20 12:31:41;;;;;;;16.60;10.60;;;;;;;;;;5067454;28;20509;-75
2021/07/20 12:34:08;;;;;;;14.53;11.20;;;;;;;;;;5056178;28;20433;-76
2021/07/20 12:36:37;;;;;;;18.77;11.20;;;;;;;;;;5062496;28;20485;-74
2021/07/20 12:39:18;;;;;;;15.23;10.77;;;;;;;;;;5075832;28;20452;-75
2021/07/20 12:41:48;;;;;;;14.13;10.40;;;;;;;;;;5083831;28;20507;-76
2021/07/20 12:44:15;;;;;;;14.97;11.70;;;;;;;;;;5095904;28;20404;-76
2021/07/20 12:46:41;;;;;;;15.13;11.30;;;;;;;;;;5079970;28;20500;-76
2021/07/20 12:49:10;;;;;;;16.30;10.30;;;;;;;;;;5055753;28;20487;-76
2021/07/20 12:51:44;;;;;;;12.93;10.70;;;;;;;;;;5062135;28;20425;-76
2021/07/20 12:54:10;;;;;;;14.60;10.57;;;;;;;;;;5056755;28;20396;-76
2021/07/20 12:56:36;;;;;;;16.57;11.53;;;;;;;;;;5062568;28;20874;-76
2021/07/20 12:59:06;;;;;;;14.60;10.70;;;;;;;;;;5093993;28;20502;-76
2021/07/20 13:01:32;;;;;;;15.33;12.10;;;;;;;;;;5086278;28;20452;-76
2021/07/20 13:04:00;;;;;;;13.87;11.10;;;;;;;;;;5058874;28;20428;-75
2021/07/20 13:06:27;;;;;;;17.00;11.20;;;;;;;;;;5074425;28;20779;-76
2021/07/20 13:08:53;;;;;;;16.77;11.60;;;;;;;;;;5075162;28;20436;-76
2021/07/20 13:11:20;;;;;;;17.10;11.50;;;;;;;;;;5056041;28;20432;-76
2021/07/20 13:13:46;;;;;;;15.63;11.97;;;;;;;;;;5075237;28;20412;-76
2021/07/20 13:16:16;;;;;;;13.70;10.90;;;;;;;;;;5083207;28;20456;-76
2021/07/20 13:18:43;;;;;;;19.43;11.53;;;;;;;;;;5074872;28;20448;-76
2021/07/20 13:21:14;;;;;;;15.83;11.30;;;;;;;;;;5074421;28;20916;-76
2021/07/20 13:23:41;;;;;;;16.40;11.90;;;;;;;;;;5074992;28;20410;-76
2021/07/20 13:26:08;;;;;;;15.53;11.40;;;;;;;;;;5074404;28;20559;-76
2021/07/20 13:28:34;;;;;;;18.30;12.63;;;;;;;;;;5074989;28;20459;-76
2021/07/20 13:31:02;;;;;;;15.00;11.37;;;;;;;;;;5073656;28;20408;-76
2021/07/20 13:33:28;;;;;;;16.83;11.60;;;;;;;;;;5073720;28;20433;-75
2021/07/20 13:35:57;;;;;;;17.33;13.20;;;;;;;;;;5056534;28;20957;-75
2021/07/20 13:38:28;;;;;;;16.10;11.53;;;;;;;;;;5073953;28;20456;-76
2021/07/20 13:40:54;;;;;;;15.63;11.70;;;;;;;;;;5074918;28;20752;-76
2021/07/20 13:43:21;;;;;;;16.20;11.43;;;;;;;;;;5073422;28;20755;-75
2021/07/20 13:45:50;;;;;;;16.73;11.50;;;;;;;;;;5073544;28;20935;-76
2021/07/20 13:48:18;;;;;;;17.50;11.83;;;;;;;;;;5073593;28;20805;-75
2021/07/20 13:50:46;;;;;;;16.53;12.20;;;;;;;;;;5074607;28;20800;-76
2021/07/20 13:53:14;;;;;;;19.87;12.30;;;;;;;;;;5073316;28;20425;-76
2021/07/20 13:55:44;;;;;;;15.00;12.03;;;;;;;;;;5074450;28;20431;-76
2021/07/20 13:58:12;;;;;;;15.77;12.50;;;;;;;;;;5073282;28;20509;-75
2021/07/20 14:00:38;;;;;;;15.00;11.40;;;;;;;;;;5074000;28;20397;-76
2021/07/20 14:03:04;;;;;;;14.37;11.70;;;;;;;;;;5062461;28;20417;-76
2021/07/20 14:05:31;;;;;;;14.40;10.47;;;;;;;;;;5053772;28;20441;-76
2021/07/20 14:07:57;;;;;;;16.70;11.90;;;;;;;;;;5063244;28;20436;-75
2021/07/20 14:10:23;;;;;;;15.77;12.43;;;;;;;;;;5074039;28;20405;-76
2021/07/20 14:12:49;;;;;;;15.73;12.17;;;;;;;;;;5072693;28;20478;-76
2021/07/20 14:15:15;;;;;;;17.87;12.80;;;;;;;;;;5073768;28;20428;-76
2021/07/20 14:17:42;;;;;;;17.40;13.17;;;;;;;;;;5081744;28;20527;-75
2021/07/20 14:20:11;;;;;;;14.90;11.93;;;;;;;;;;5055759;28;20408;-75
2021/07/20 14:22:38;;;;;;;16.10;12.10;;;;;;;;;;5072552;28;20515;-76
2021/07/20 14:25:04;;;;;;;15.03;11.90;;;;;;;;;;5073516;28;20735;-76
2021/07/20 14:27:31;;;;;;;16.00;12.90;;;;;;;;;;5072632;28;20777;-76
2021/07/20 14:29:57;;;;;;;19.80;12.17;;;;;;;;;;5073679;28;20409;-76
2021/07/20 14:32:25;;;;;;;16.13;11.73;;;;;;;;;;5072431;28;20420;-76
2021/07/20 14:34:52;;;;;;;15.60;11.90;;;;;;;;;;5073191;28;20424;-75
2021/07/20 14:37:30;;;;;;;15.97;11.70;;;;;;;;;;5070190;28;20417;-76
2021/07/20 14:39:56;;;;;;;15.60;11.77;;;;;;;;;;5073071;28;20404;-76
2021/07/20 14:42:24;;;;;;;15.57;12.40;;;;;;;;;;5070727;28;20925;-76
2021/07/20 14:44:51;;;;;;;17.37;12.70;;;;;;;;;;5072702;28;20558;-76